createdAt,value
2022-10-18T00:00:37.147Z,47.53
2022-10-18T00:03:04.250Z,47.50
2022-10-18T00:05:32.743Z,47.65
2022-10-18T00:07:59.869Z,47.50
2022-10-18T00:10:26.984Z,47.87
2022-10-18T00:12:55.262Z,47.68
2022-10-18T00:15:22.434Z,47.64
2022-10-18T00:17:49.540Z,47.90
2022-10-18T00:20:16.814Z,47.61
2022-10-18T00:22:45.322Z,47.67
2022-10-18T00:25:13.681Z,47.76
2022-10-18T00:27:40.828Z,48.05
2022-10-18T00:30:08.966Z,48.01
2022-10-18T00:32:36.516Z,47.88
2022-10-18T00:35:04.410Z,47.77
2022-10-18T00:37:31.869Z,47.88
2022-10-18T00:40:00.451Z,47.99
2022-10-18T00:42:30.944Z,48.10
2022-10-18T00:45:14.497Z,47.77
2022-10-18T00:47:43.680Z,47.63
2022-10-18T00:50:11.256Z,47.58
2022-10-18T00:52:41.572Z,47.82
2022-10-18T00:55:10.934Z,47.56
2022-10-18T00:57:40.552Z,47.59
2022-10-18T01:03:09.700Z,47.94
2022-10-18T01:05:40.525Z,47.81
2022-10-18T01:08:32.393Z,47.88
2022-10-18T01:11:18.326Z,47.86
2022-10-18T01:14:05.860Z,47.63
2022-10-18T01:16:37.911Z,48.03
2022-10-18T01:19:21.395Z,47.82
2022-10-18T01:21:54.240Z,47.59
2022-10-18T01:24:50.769Z,47.83
2022-10-18T01:27:42.989Z,47.79
2022-10-18T01:30:33.448Z,48.09
2022-10-18T01:33:05.586Z,48.03
2022-10-18T01:35:37.701Z,48.00
2022-10-18T01:38:10.116Z,47.68
2022-10-18T01:40:39.527Z,47.60
2022-10-18T01:43:10.350Z,47.90
2022-10-18T01:45:39.493Z,47.76
2022-10-18T01:48:06.851Z,47.66
2022-10-18T01:50:35.016Z,47.93
2022-10-18T01:53:02.228Z,47.72
2022-10-18T01:55:38.159Z,47.66
2022-10-18T01:58:13.908Z,47.71
2022-10-18T02:00:42.995Z,47.94
2022-10-18T02:03:17.341Z,47.54
2022-10-18T02:05:49.194Z,48.08
2022-10-18T02:08:25.635Z,47.47
2022-10-18T02:10:57.092Z,47.53
2022-10-18T02:13:29.581Z,47.59
2022-10-18T02:16:03.369Z,47.74
2022-10-18T02:18:36.530Z,47.42
2022-10-18T02:21:05.520Z,47.77
2022-10-18T02:23:34.553Z,47.54
2022-10-18T02:26:02.040Z,47.45
2022-10-18T02:28:29.587Z,47.48
2022-10-18T02:31:10.748Z,47.95
2022-10-18T02:33:43.848Z,47.58
2022-10-18T02:36:15.565Z,47.59
2022-10-18T02:38:45.624Z,47.38
2022-10-18T02:41:12.765Z,47.51
2022-10-18T02:43:39.877Z,47.66
2022-10-18T02:46:08.444Z,47.84
2022-10-18T02:48:35.556Z,47.67
2022-10-18T02:51:02.659Z,47.90
2022-10-18T02:53:29.778Z,47.55
2022-10-18T02:55:56.861Z,47.57
2022-10-18T02:58:23.969Z,47.48
2022-10-18T03:00:51.089Z,47.57
2022-10-18T03:03:19.557Z,47.60
2022-10-18T03:05:49.233Z,47.88
2022-10-18T03:08:16.363Z,47.71
2022-10-18T03:10:43.950Z,47.67
2022-10-18T03:13:11.117Z,47.82
2022-10-18T03:15:38.231Z,47.74
2022-10-18T03:18:05.600Z,47.62
2022-10-18T03:20:34.908Z,47.41
2022-10-18T03:23:02.009Z,47.81
2022-10-18T03:25:29.218Z,47.76
2022-10-18T03:27:56.321Z,47.95
2022-10-18T03:30:23.603Z,47.86
2022-10-18T03:32:50.732Z,47.91
2022-10-18T03:35:18.091Z,47.49
2022-10-18T03:37:46.606Z,47.57
2022-10-18T03:40:13.818Z,47.59
2022-10-18T03:42:41.331Z,47.94
2022-10-18T03:45:09.524Z,47.63
2022-10-18T03:47:36.919Z,47.66
2022-10-18T03:50:04.820Z,48.09
2022-10-18T03:52:32.303Z,48.05
2022-10-18T03:55:00.986Z,47.69
2022-10-18T03:57:28.095Z,47.94
2022-10-18T03:59:55.386Z,47.87
2022-10-18T04:02:22.554Z,48.05
2022-10-18T04:04:49.667Z,47.92
2022-10-18T04:07:16.830Z,47.87
2022-10-18T04:09:44.105Z,47.64
2022-10-18T04:12:12.878Z,47.58
2022-10-18T04:14:39.980Z,47.91
2022-10-18T04:17:07.089Z,47.68
2022-10-18T04:19:34.279Z,48.88
2022-10-18T04:22:01.641Z,49.64
2022-10-18T04:24:28.749Z,52.03
2022-10-18T04:26:55.885Z,49.00
2022-10-18T04:29:24.322Z,48.91
2022-10-18T04:31:51.412Z,48.67
2022-10-18T04:34:18.534Z,48.99
2022-10-18T04:36:45.617Z,48.76
2022-10-18T04:39:12.727Z,49.03
2022-10-18T04:41:39.961Z,48.61
2022-10-18T04:44:07.861Z,48.64
2022-10-18T04:46:36.399Z,48.49
2022-10-18T04:49:03.660Z,48.67
2022-10-18T04:51:30.782Z,48.28
2022-10-18T04:53:57.929Z,48.41
2022-10-18T04:56:25.094Z,48.13
2022-10-18T04:58:52.225Z,48.16
2022-10-18T05:01:19.413Z,48.29
2022-10-18T05:03:52.177Z,48.19
2022-10-18T05:06:19.287Z,47.96
2022-10-18T05:08:46.427Z,48.35
2022-10-18T05:11:13.627Z,47.90
2022-10-18T05:13:40.743Z,48.00
2022-10-18T05:16:07.836Z,48.08
2022-10-18T05:18:35.202Z,47.93
2022-10-18T05:21:03.827Z,47.85
2022-10-18T05:23:30.930Z,47.84
2022-10-18T05:26:02.198Z,47.69
2022-10-18T05:28:44.651Z,48.08
2022-10-18T05:31:11.884Z,48.13
2022-10-18T05:33:39.094Z,47.93
2022-10-18T05:36:08.210Z,48.32
2022-10-18T05:38:38.652Z,48.18
2022-10-18T05:41:06.079Z,47.96
2022-10-18T05:43:33.216Z,47.96
2022-10-18T05:46:00.422Z,48.08
2022-10-18T05:48:27.535Z,48.10
2022-10-18T05:50:57.826Z,47.69
2022-10-18T05:53:36.289Z,47.97
2022-10-18T05:56:05.244Z,47.68
2022-10-18T05:58:32.432Z,47.71
2022-10-18T06:00:59.751Z,47.97
2022-10-18T06:03:27.043Z,47.87
2022-10-18T06:05:59.325Z,48.24
2022-10-18T06:08:28.085Z,47.91
2022-10-18T06:10:55.224Z,48.25
2022-10-18T06:13:22.490Z,48.19
2022-10-18T06:15:49.912Z,48.11
2022-10-18T06:18:17.017Z,47.97
2022-10-18T06:20:44.254Z,48.01
2022-10-18T06:23:30.112Z,47.92
2022-10-18T06:25:59.211Z,48.19
2022-10-18T06:28:26.608Z,48.14
2022-10-18T06:30:53.836Z,47.92
2022-10-18T06:33:21.107Z,48.24
2022-10-18T06:35:55.478Z,47.91
2022-10-18T06:38:22.601Z,47.69
2022-10-18T06:40:51.107Z,47.83
2022-10-18T06:43:21.048Z,47.87
2022-10-18T06:45:48.798Z,48.07
2022-10-18T06:48:16.142Z,48.15
2022-10-18T06:50:43.581Z,48.15
2022-10-18T06:53:10.708Z,48.05
2022-10-18T06:55:37.801Z,47.98
2022-10-18T06:58:06.340Z,47.97
2022-10-18T07:00:33.447Z,48.17
2022-10-18T07:03:00.535Z,48.24
2022-10-18T07:05:27.649Z,47.94
2022-10-18T07:07:56.486Z,48.06
2022-10-18T07:10:25.064Z,48.12
2022-10-18T07:12:59.244Z,48.06
2022-10-18T07:15:36.470Z,48.61
2022-10-18T07:18:04.152Z,49.75
2022-10-18T07:20:31.486Z,48.98
2022-10-18T07:22:58.808Z,48.78
2022-10-18T07:25:28.436Z,48.36
2022-10-18T07:27:57.594Z,48.62
2022-10-18T07:30:24.727Z,48.43
2022-10-18T07:32:53.189Z,48.44
2022-10-18T07:35:20.557Z,48.35
2022-10-18T07:37:47.650Z,48.52
2022-10-18T07:40:14.791Z,48.61
2022-10-18T07:42:41.915Z,48.64
2022-10-18T07:45:09.647Z,48.64
2022-10-18T07:47:37.009Z,49.01
2022-10-18T07:50:06.947Z,48.81
2022-10-18T07:52:34.076Z,49.41
2022-10-18T07:55:01.200Z,49.25
2022-10-18T07:57:28.278Z,49.19
2022-10-18T07:59:55.384Z,48.84
2022-10-18T08:02:22.814Z,49.10
2022-10-18T08:04:49.904Z,49.13
2022-10-18T08:07:18.386Z,49.88
2022-10-18T08:09:45.496Z,48.48
2022-10-18T08:12:12.803Z,45.29
2022-10-18T08:14:39.950Z,45.28
2022-10-18T08:17:07.072Z,43.92
2022-10-18T08:19:34.193Z,44.13
2022-10-18T08:22:01.325Z,43.92
2022-10-18T08:24:29.801Z,43.82
2022-10-18T08:26:56.916Z,44.35
2022-10-18T08:29:27.951Z,44.75
2022-10-18T08:31:56.502Z,45.07
2022-10-18T08:34:23.773Z,45.45
2022-10-18T08:36:50.875Z,45.63
2022-10-18T08:39:17.979Z,45.53
2022-10-18T08:42:20.880Z,45.68
2022-10-18T08:44:51.440Z,45.52
2022-10-18T08:47:21.085Z,45.34
2022-10-18T08:49:51.637Z,45.33
2022-10-18T08:52:31.529Z,45.33
2022-10-18T08:55:02.248Z,45.46
2022-10-18T08:57:31.156Z,45.35
2022-10-18T09:00:01.489Z,45.68
2022-10-18T09:02:44.088Z,45.77
2022-10-18T09:05:22.848Z,46.07
2022-10-18T09:08:14.521Z,46.06
2022-10-18T09:10:50.988Z,45.90
2022-10-18T09:13:36.421Z,46.08
2022-10-18T09:16:08.432Z,45.90
2022-10-18T09:18:55.901Z,45.98
2022-10-18T09:21:32.136Z,46.01
2022-10-18T09:24:06.625Z,46.26
2022-10-18T09:26:43.216Z,46.37
2022-10-18T09:29:40.677Z,46.26
2022-10-18T09:32:25.208Z,46.94
2022-10-18T09:34:56.494Z,46.53
2022-10-18T09:37:27.208Z,46.96
2022-10-18T09:40:02.800Z,46.82
2022-10-18T09:42:35.666Z,46.66
2022-10-18T09:45:08.222Z,47.04
2022-10-18T09:47:41.399Z,47.15
2022-10-18T09:50:22.154Z,46.93
2022-10-18T09:52:54.473Z,59.63
2022-10-18T09:55:27.531Z,51.81
2022-10-18T09:57:59.622Z,49.46
2022-10-18T10:00:31.760Z,49.89
2022-10-18T10:03:02.072Z,49.33
2022-10-18T10:05:29.360Z,49.23
2022-10-18T10:07:58.921Z,48.98
2022-10-18T10:10:28.834Z,48.49
2022-10-18T10:13:05.051Z,48.39
2022-10-18T10:15:37.065Z,48.80
2022-10-18T10:18:20.904Z,49.56
2022-10-18T10:20:51.358Z,50.31
2022-10-18T10:23:22.001Z,50.16
2022-10-18T10:25:52.628Z,50.19
2022-10-18T10:28:23.286Z,51.45
2022-10-18T10:30:50.699Z,50.94
2022-10-18T10:33:38.639Z,51.24
2022-10-18T10:36:17.035Z,50.33
2022-10-18T10:38:44.327Z,49.75
2022-10-18T10:41:19.953Z,49.45
2022-10-18T10:43:47.860Z,49.13
2022-10-18T10:46:16.805Z,48.77
2022-10-18T10:48:49.589Z,48.69
2022-10-18T10:51:28.214Z,48.72
2022-10-18T10:54:00.044Z,48.46
2022-10-18T10:56:30.120Z,48.42
2022-10-18T10:59:07.682Z,47.99
2022-10-18T11:01:34.823Z,47.96
2022-10-18T11:04:24.104Z,47.87
2022-10-18T11:07:03.184Z,47.75
2022-10-18T11:09:39.044Z,47.28
2022-10-18T11:12:27.764Z,47.83
2022-10-18T11:15:02.670Z,47.89
2022-10-18T11:17:35.727Z,47.78
2022-10-18T11:20:13.853Z,47.71
2022-10-18T11:22:45.977Z,47.40
2022-10-18T11:25:16.686Z,47.69
2022-10-18T11:27:54.156Z,47.49
2022-10-18T11:30:44.028Z,47.39
2022-10-18T11:33:50.057Z,47.76
2022-10-18T11:36:20.919Z,47.68
2022-10-18T11:38:56.001Z,47.54
2022-10-18T11:41:35.825Z,47.67
2022-10-18T11:44:09.664Z,47.63
2022-10-18T11:46:55.648Z,47.77
2022-10-18T11:49:49.590Z,47.40
2022-10-18T11:52:26.876Z,47.21
2022-10-18T11:55:08.913Z,47.63
2022-10-18T11:57:50.091Z,47.49
2022-10-18T12:00:35.044Z,47.63
2022-10-18T12:03:14.723Z,47.73
2022-10-18T12:05:44.504Z,47.32
2022-10-18T12:08:16.084Z,47.41
2022-10-18T12:11:03.959Z,47.87
2022-10-18T12:13:38.832Z,47.47
2022-10-18T12:16:09.288Z,47.55
2022-10-18T12:18:43.022Z,47.66
2022-10-18T12:21:12.993Z,47.32
2022-10-18T12:23:48.960Z,47.63
2022-10-18T12:26:17.664Z,47.30
2022-10-18T12:28:54.951Z,47.15
2022-10-18T12:31:27.411Z,47.05
2022-10-18T12:33:58.396Z,47.22
2022-10-18T12:36:55.091Z,47.52
2022-10-18T12:39:37.724Z,47.75
2022-10-18T12:42:19.618Z,48.33
2022-10-18T12:44:47.687Z,48.16
2022-10-18T12:47:22.999Z,48.06
2022-10-18T12:49:57.298Z,47.75
2022-10-18T12:52:26.370Z,47.75
2022-10-18T12:55:31.804Z,47.94
2022-10-18T12:58:06.288Z,47.89
2022-10-18T13:00:56.871Z,47.94
2022-10-18T13:03:55.088Z,48.13
2022-10-18T13:06:23.267Z,47.48
2022-10-18T13:09:19.745Z,47.64
2022-10-18T13:11:48.478Z,47.58
2022-10-18T13:14:48.206Z,47.56
2022-10-18T13:17:33.926Z,47.32
2022-10-18T13:20:25.587Z,47.61
2022-10-18T13:23:10.112Z,47.36
2022-10-18T13:25:50.911Z,47.49
2022-10-18T13:28:29.493Z,47.47
2022-10-18T13:31:03.702Z,47.33
2022-10-18T13:33:33.993Z,47.69
2022-10-18T13:36:04.955Z,47.39
2022-10-18T13:38:45.266Z,47.38
2022-10-18T13:41:15.038Z,47.22
2022-10-18T13:44:22.471Z,47.58
2022-10-18T13:47:43.050Z,47.25
2022-10-18T13:50:30.611Z,47.19
2022-10-18T13:53:11.668Z,47.64
2022-10-18T13:55:55.960Z,47.40
2022-10-18T13:58:34.839Z,47.53
2022-10-18T14:01:14.588Z,47.37
2022-10-18T14:04:07.441Z,47.40
2022-10-18T14:06:38.405Z,47.62
2022-10-18T14:09:25.457Z,47.64
2022-10-18T14:12:08.049Z,47.67
2022-10-18T14:14:41.337Z,47.79
2022-10-18T14:17:22.339Z,47.60
2022-10-18T14:19:55.030Z,47.44
2022-10-18T14:22:25.249Z,47.69
2022-10-18T14:24:55.375Z,47.75
2022-10-18T14:27:24.701Z,47.49
2022-10-18T14:30:08.867Z,47.71
2022-10-18T14:32:37.434Z,47.77
2022-10-18T14:35:32.982Z,47.32
2022-10-18T14:38:01.385Z,47.64
2022-10-18T14:40:34.969Z,47.62
2022-10-18T14:43:04.212Z,47.73
2022-10-18T14:45:31.308Z,47.46
2022-10-18T14:48:15.005Z,47.86
2022-10-18T14:50:43.617Z,47.73
2022-10-18T14:53:16.305Z,47.52
2022-10-18T14:55:43.651Z,47.96
2022-10-18T14:58:16.023Z,47.72
2022-10-18T15:00:46.311Z,47.46
2022-10-18T15:03:18.153Z,47.79
2022-10-18T15:05:53.140Z,47.55
2022-10-18T15:08:20.980Z,47.82
2022-10-18T15:10:48.511Z,47.80
2022-10-18T15:13:16.853Z,47.76
2022-10-18T15:15:44.678Z,47.82
2022-10-18T15:18:22.005Z,47.60
2022-10-18T15:21:07.731Z,47.55
2022-10-18T15:23:34.984Z,47.71
2022-10-18T15:26:04.868Z,47.73
2022-10-18T15:28:36.338Z,47.59
2022-10-18T15:31:03.833Z,47.45
2022-10-18T15:33:33.251Z,47.43
2022-10-18T15:36:08.750Z,47.57
2022-10-18T15:38:36.256Z,47.68
2022-10-18T15:41:23.997Z,47.42
2022-10-18T15:43:51.138Z,47.34
2022-10-18T15:46:30.907Z,47.84
2022-10-18T15:49:37.528Z,47.92
2022-10-18T15:52:38.219Z,47.45
2022-10-18T15:55:46.135Z,47.74
2022-10-18T15:58:18.527Z,47.83
2022-10-18T16:00:46.972Z,47.72
2022-10-18T16:03:14.821Z,47.38
2022-10-18T16:05:44.206Z,47.50
2022-10-18T16:08:19.528Z,47.41
2022-10-18T16:10:46.714Z,47.70
2022-10-18T16:13:13.838Z,47.49
2022-10-18T16:15:40.949Z,47.19
2022-10-18T16:18:11.242Z,47.32
2022-10-18T16:20:38.337Z,47.15
2022-10-18T16:23:17.844Z,47.12
2022-10-18T16:25:45.048Z,47.43
2022-10-18T16:28:14.573Z,47.53
2022-10-18T16:30:45.708Z,47.25
2022-10-18T16:33:13.616Z,47.19
2022-10-18T16:35:42.768Z,47.51
2022-10-18T16:38:19.708Z,47.71
2022-10-18T16:40:46.844Z,47.72
2022-10-18T16:43:13.947Z,47.43
2022-10-18T16:45:41.326Z,47.63
2022-10-18T16:48:13.013Z,47.39
2022-10-18T16:50:40.113Z,47.85
2022-10-18T16:53:07.275Z,48.36
2022-10-18T16:55:36.086Z,47.92
2022-10-18T16:58:03.243Z,48.16
2022-10-18T17:00:30.753Z,48.34
2022-10-18T17:02:57.854Z,48.16
2022-10-18T17:05:25.464Z,47.94
2022-10-18T17:07:52.580Z,47.99
2022-10-18T17:10:21.283Z,48.07
2022-10-18T17:12:49.993Z,48.04
2022-10-18T17:15:17.569Z,47.54
2022-10-18T17:17:44.674Z,47.74
2022-10-18T17:20:19.683Z,47.81
2022-10-18T17:22:47.000Z,47.86
2022-10-18T17:25:14.687Z,47.77
2022-10-18T17:27:42.001Z,47.66
2022-10-18T17:30:12.754Z,47.77
2022-10-18T17:32:39.949Z,47.90
2022-10-18T17:35:07.570Z,47.99
2022-10-18T17:37:35.025Z,47.77
2022-10-18T17:40:02.370Z,47.52
2022-10-18T17:42:29.509Z,47.39
2022-10-18T17:44:57.817Z,47.42
2022-10-18T17:47:26.429Z,47.30
2022-10-18T17:49:53.766Z,47.36
2022-10-18T17:52:20.873Z,47.58
2022-10-18T17:54:47.971Z,47.20
2022-10-18T17:57:15.303Z,47.67
2022-10-18T17:59:42.480Z,47.64
2022-10-18T18:02:10.195Z,47.67
2022-10-18T18:04:38.716Z,47.69
2022-10-18T18:07:05.835Z,47.45
2022-10-18T18:09:32.978Z,47.50
2022-10-18T18:12:00.118Z,48.24
2022-10-18T18:14:27.446Z,48.01
2022-10-18T18:16:54.568Z,48.83
2022-10-18T18:19:21.692Z,50.07
2022-10-18T18:21:50.165Z,50.21
2022-10-18T18:24:17.283Z,49.72
2022-10-18T18:26:44.403Z,50.23
2022-10-18T18:29:12.965Z,48.87
2022-10-18T18:31:43.510Z,48.29
2022-10-18T18:34:11.014Z,49.36
2022-10-18T18:36:38.769Z,48.70
2022-10-18T18:39:07.741Z,48.04
2022-10-18T18:41:35.282Z,48.54
2022-10-18T18:44:04.761Z,48.63
2022-10-18T18:46:33.505Z,48.97
2022-10-18T18:49:00.669Z,48.91
2022-10-18T18:51:28.324Z,48.91
2022-10-18T18:53:55.425Z,49.09
2022-10-18T18:56:25.963Z,49.28
2022-10-18T18:58:54.032Z,49.56
2022-10-18T19:01:22.837Z,49.12
2022-10-18T19:03:51.480Z,49.41
2022-10-18T19:06:20.586Z,49.87
2022-10-18T19:08:48.548Z,49.68
2022-10-18T19:11:17.688Z,49.66
2022-10-18T19:13:47.090Z,49.37
2022-10-18T19:16:25.669Z,49.50
2022-10-18T19:18:55.859Z,49.41
2022-10-18T19:21:23.768Z,49.00
2022-10-18T19:23:51.465Z,48.94
2022-10-18T19:26:26.691Z,49.42
2022-10-18T19:28:55.584Z,48.76
2022-10-18T19:31:23.031Z,48.98
2022-10-18T19:33:59.338Z,48.88
2022-10-18T19:36:28.433Z,48.88
2022-10-18T19:38:55.864Z,48.75
2022-10-18T19:41:23.029Z,48.95
2022-10-18T19:43:50.274Z,48.59
2022-10-18T19:46:18.780Z,48.68
2022-10-18T19:48:46.067Z,48.56
2022-10-18T19:51:17.357Z,48.66
2022-10-18T19:53:48.154Z,48.77
2022-10-18T19:56:18.359Z,48.51
2022-10-18T19:58:45.779Z,48.60
2022-10-18T20:01:13.381Z,48.24
2022-10-18T20:03:42.619Z,48.26
2022-10-18T20:06:10.044Z,48.26
2022-10-18T20:08:37.618Z,48.09
2022-10-18T20:11:07.092Z,48.27
2022-10-18T20:13:34.937Z,48.20
2022-10-18T20:16:03.384Z,48.25
2022-10-18T20:18:30.989Z,47.84
2022-10-18T20:20:59.612Z,47.85
2022-10-18T20:23:26.716Z,47.96
2022-10-18T20:25:58.513Z,48.41
2022-10-18T20:28:27.125Z,48.13
2022-10-18T20:31:05.485Z,48.38
2022-10-18T20:33:35.389Z,48.47
2022-10-18T20:36:06.424Z,48.49
2022-10-18T20:38:34.723Z,48.17
2022-10-18T20:41:03.380Z,48.67
2022-10-18T20:43:30.698Z,48.39
2022-10-18T20:45:58.376Z,48.48
2022-10-18T20:48:25.931Z,48.25
2022-10-18T20:50:53.345Z,48.75
2022-10-18T20:53:22.171Z,48.39
2022-10-18T20:55:49.778Z,48.16
2022-10-18T20:58:17.355Z,48.48
2022-10-18T21:00:44.447Z,48.11
2022-10-18T21:05:39.739Z,48.34
2022-10-18T21:08:06.852Z,48.12
2022-10-18T21:10:35.323Z,48.33
2022-10-18T21:13:02.488Z,48.42
2022-10-18T21:15:29.616Z,48.32
2022-10-18T21:17:56.729Z,48.40
2022-10-18T21:20:23.858Z,48.30
2022-10-18T21:22:50.959Z,48.65
2022-10-18T21:25:18.079Z,48.69
2022-10-18T21:27:46.573Z,48.35
2022-10-18T21:30:13.837Z,48.62
2022-10-18T21:32:40.945Z,48.45
2022-10-18T21:35:08.889Z,48.65
2022-10-18T21:37:36.063Z,48.47
2022-10-18T21:40:03.852Z,48.38
2022-10-18T21:42:31.203Z,48.25
2022-10-18T21:44:59.843Z,48.44
2022-10-18T21:47:26.945Z,48.51
2022-10-18T21:49:54.056Z,48.50
2022-10-18T21:52:21.165Z,48.51
2022-10-18T21:54:48.261Z,48.41
2022-10-18T21:57:15.369Z,48.67
2022-10-18T21:59:42.459Z,48.44
2022-10-18T22:02:10.952Z,48.50
2022-10-18T22:04:40.655Z,48.54
2022-10-18T22:07:07.765Z,48.43
2022-10-18T22:09:34.883Z,48.30
2022-10-18T22:12:02.149Z,48.71
2022-10-18T22:14:29.246Z,48.17
2022-10-18T22:16:56.350Z,48.21
2022-10-18T22:19:25.019Z,48.27
2022-10-18T22:21:52.162Z,48.56
2022-10-18T22:24:19.626Z,48.28
2022-10-18T22:26:47.167Z,48.40
2022-10-18T22:29:16.496Z,48.37
2022-10-18T22:31:46.224Z,48.22
2022-10-18T22:34:15.580Z,48.48
2022-10-18T22:36:44.440Z,48.61
2022-10-18T22:39:12.658Z,48.49
2022-10-18T22:41:40.776Z,48.63
2022-10-18T22:44:08.587Z,48.28
2022-10-18T22:46:35.708Z,48.31
2022-10-18T22:49:02.828Z,48.79
2022-10-18T22:51:30.027Z,48.63
2022-10-18T22:53:58.549Z,48.62
2022-10-18T22:56:26.061Z,48.57
2022-10-18T22:58:53.189Z,48.19
2022-10-18T23:01:22.068Z,48.70
2022-10-18T23:03:52.865Z,48.26
2022-10-18T23:06:22.838Z,48.31
2022-10-18T23:08:50.610Z,48.45
2022-10-18T23:11:19.554Z,48.24
2022-10-18T23:13:47.319Z,48.31
2022-10-18T23:16:14.631Z,48.22
2022-10-18T23:18:41.960Z,48.32
2022-10-18T23:21:10.416Z,48.56
2022-10-18T23:23:39.976Z,48.67
2022-10-18T23:26:09.049Z,48.63
2022-10-18T23:28:38.621Z,48.63
2022-10-18T23:31:07.975Z,48.80
2022-10-18T23:33:35.661Z,48.45
2022-10-18T23:36:02.919Z,48.45
2022-10-18T23:38:30.781Z,48.75
2022-10-18T23:40:58.245Z,48.97
2022-10-18T23:43:25.651Z,48.81
2022-10-18T23:45:54.284Z,48.33
2022-10-18T23:48:21.519Z,48.44
2022-10-18T23:50:48.646Z,48.52
2022-10-18T23:53:15.767Z,48.39
2022-10-18T23:55:49.894Z,48.49
2022-10-18T23:58:17.009Z,48.70
